sensor_id;sensor_type;location;lat;lon;timestamp;temperature;humidity
39503;DHT22;26970;49.900;10.774;2024-03-22T00:01:09;5.90;99.90
39503;DHT22;26970;49.900;10.774;2024-03-22T00:03:34;5.80;99.90
39503;DHT22;26970;49.900;10.774;2024-03-22T00:06:00;5.70;99.90
39503;DHT22;26970;49.900;10.774;2024-03-22T00:08:25;5.60;99.90
39503;DHT22;26970;49.900;10.774;2024-03-22T00:10:51;5.70;99.90
39503;DHT22;26970;49.900;10.774;2024-03-22T00:13:16;5.70;99.90
39503;DHT22;26970;49.900;10.774;2024-03-22T00:15:42;5.60;99.90
39503;DHT22;26970;49.900;10.774;2024-03-22T00:18:09;5.60;99.90
39503;DHT22;26970;49.900;10.774;2024-03-22T00:20:35;5.70;99.90
39503;DHT22;26970;49.900;10.774;2024-03-22T00:23:01;5.60;99.90
39503;DHT22;26970;49.900;10.774;2024-03-22T00:25:26;5.60;99.90
39503;DHT22;26970;49.900;10.774;2024-03-22T00:27:52;5.60;99.90
39503;DHT22;26970;49.900;10.774;2024-03-22T00:30:17;5.60;99.90
39503;DHT22;26970;49.900;10.774;2024-03-22T00:32:43;5.60;99.90
39503;DHT22;26970;49.900;10.774;2024-03-22T00:35:11;5.60;99.90
39503;DHT22;26970;49.900;10.774;2024-03-22T00:37:36;5.60;99.90
39503;DHT22;26970;49.900;10.774;2024-03-22T00:40:02;5.60;99.90
39503;DHT22;26970;49.900;10.774;2024-03-22T00:42:27;5.60;99.90
39503;DHT22;26970;49.900;10.774;2024-03-22T00:44:53;5.60;99.90
39503;DHT22;26970;49.900;10.774;2024-03-22T00:47:20;5.70;99.90
39503;DHT22;26970;49.900;10.774;2024-03-22T00:49:46;5.70;99.90
39503;DHT22;26970;49.900;10.774;2024-03-22T00:52:11;5.70;99.90
39503;DHT22;26970;49.900;10.774;2024-03-22T00:54:37;5.70;99.90
39503;DHT22;26970;49.900;10.774;2024-03-22T00:57:04;5.70;99.90
39503;DHT22;26970;49.900;10.774;2024-03-22T00:59:30;5.70;99.90
39503;DHT22;26970;49.900;10.774;2024-03-22T01:01:55;5.70;99.90
39503;DHT22;26970;49.900;10.774;2024-03-22T01:04:21;5.70;99.90
39503;DHT22;26970;49.900;10.774;2024-03-22T01:06:46;5.70;99.90
39503;DHT22;26970;49.900;10.774;2024-03-22T01:09:12;5.70;99.90
39503;DHT22;26970;49.900;10.774;2024-03-22T01:11:37;5.60;99.90
39503;DHT22;26970;49.900;10.774;2024-03-22T01:14:03;5.70;99.90
39503;DHT22;26970;49.900;10.774;2024-03-22T01:16:28;5.60;99.90
39503;DHT22;26970;49.900;10.774;2024-03-22T01:18:54;5.60;99.90
39503;DHT22;26970;49.900;10.774;2024-03-22T01:21:19;5.60;99.90
39503;DHT22;26970;49.900;10.774;2024-03-22T01:23:53;5.60;99.90
39503;DHT22;26970;49.900;10.774;2024-03-22T01:26:18;5.60;99.90
39503;DHT22;26970;49.900;10.774;2024-03-22T01:28:44;5.60;99.90
39503;DHT22;26970;49.900;10.774;2024-03-22T01:31:09;5.50;99.90
39503;DHT22;26970;49.900;10.774;2024-03-22T01:33:35;5.50;99.90
39503;DHT22;26970;49.900;10.774;2024-03-22T01:36:00;5.50;99.90
39503;DHT22;26970;49.900;10.774;2024-03-22T01:38:26;5.50;99.90
39503;DHT22;26970;49.900;10.774;2024-03-22T01:40:51;5.50;99.90
39503;DHT22;26970;49.900;10.774;2024-03-22T01:43:17;5.50;99.90
39503;DHT22;26970;49.900;10.774;2024-03-22T01:45:42;5.50;99.90
39503;DHT22;26970;49.900;10.774;2024-03-22T01:48:08;5.40;99.90
39503;DHT22;26970;49.900;10.774;2024-03-22T01:50:34;5.40;99.90
39503;DHT22;26970;49.900;10.774;2024-03-22T01:53:01;5.40;99.90
39503;DHT22;26970;49.900;10.774;2024-03-22T01:55:27;5.50;99.90
39503;DHT22;26970;49.900;10.774;2024-03-22T01:57:54;5.40;99.90
39503;DHT22;26970;49.900;10.774;2024-03-22T02:00:21;5.50;99.90
39503;DHT22;26970;49.900;10.774;2024-03-22T02:02:46;5.50;99.90
39503;DHT22;26970;49.900;10.774;2024-03-22T02:05:13;5.60;99.90
39503;DHT22;26970;49.900;10.774;2024-03-22T02:07:40;5.50;99.90
39503;DHT22;26970;49.900;10.774;2024-03-22T02:10:06;5.40;99.90
39503;DHT22;26970;49.900;10.774;2024-03-22T02:12:33;5.30;99.90
39503;DHT22;26970;49.900;10.774;2024-03-22T02:14:59;5.20;99.90
39503;DHT22;26970;49.900;10.774;2024-03-22T02:17:25;5.10;99.90
39503;DHT22;26970;49.900;10.774;2024-03-22T02:19:50;5.10;99.90
39503;DHT22;26970;49.900;10.774;2024-03-22T02:22:16;5.10;99.90
39503;DHT22;26970;49.900;10.774;2024-03-22T02:24:41;5.10;99.90
39503;DHT22;26970;49.900;10.774;2024-03-22T02:27:07;5.10;99.90
39503;DHT22;26970;49.900;10.774;2024-03-22T02:29:32;5.10;99.90
39503;DHT22;26970;49.900;10.774;2024-03-22T02:31:58;5.10;99.90
39503;DHT22;26970;49.900;10.774;2024-03-22T02:34:24;5.10;99.90
39503;DHT22;26970;49.900;10.774;2024-03-22T02:36:49;5.10;99.90
39503;DHT22;26970;49.900;10.774;2024-03-22T02:39:15;5.10;99.90
39503;DHT22;26970;49.900;10.774;2024-03-22T02:41:40;5.10;99.90
39503;DHT22;26970;49.900;10.774;2024-03-22T02:44:06;5.10;99.90
39503;DHT22;26970;49.900;10.774;2024-03-22T02:46:31;5.10;99.90
39503;DHT22;26970;49.900;10.774;2024-03-22T02:48:57;5.10;99.90
39503;DHT22;26970;49.900;10.774;2024-03-22T02:51:22;5.00;99.90
39503;DHT22;26970;49.900;10.774;2024-03-22T02:53:48;4.90;99.90
39503;DHT22;26970;49.900;10.774;2024-03-22T02:56:13;4.80;99.90
39503;DHT22;26970;49.900;10.774;2024-03-22T02:58:39;4.80;99.90
39503;DHT22;26970;49.900;10.774;2024-03-22T03:01:05;4.70;99.90
39503;DHT22;26970;49.900;10.774;2024-03-22T03:03:31;4.70;99.90
39503;DHT22;26970;49.900;10.774;2024-03-22T03:05:56;4.70;99.90
39503;DHT22;26970;49.900;10.774;2024-03-22T03:08:22;4.60;99.90
39503;DHT22;26970;49.900;10.774;2024-03-22T03:10:47;4.60;99.90
39503;DHT22;26970;49.900;10.774;2024-03-22T03:13:13;4.50;99.90
39503;DHT22;26970;49.900;10.774;2024-03-22T03:15:39;4.50;99.90
39503;DHT22;26970;49.900;10.774;2024-03-22T03:18:04;4.50;99.90
39503;DHT22;26970;49.900;10.774;2024-03-22T03:20:30;4.50;99.90
39503;DHT22;26970;49.900;10.774;2024-03-22T03:22:55;4.50;99.90
39503;DHT22;26970;49.900;10.774;2024-03-22T03:25:25;4.50;99.90
39503;DHT22;26970;49.900;10.774;2024-03-22T03:27:50;4.50;99.90
39503;DHT22;26970;49.900;10.774;2024-03-22T03:30:16;4.40;99.90
39503;DHT22;26970;49.900;10.774;2024-03-22T03:32:41;4.40;99.90
39503;DHT22;26970;49.900;10.774;2024-03-22T03:35:07;4.30;99.90
39503;DHT22;26970;49.900;10.774;2024-03-22T03:37:33;4.30;99.90
39503;DHT22;26970;49.900;10.774;2024-03-22T03:39:58;4.30;99.90
39503;DHT22;26970;49.900;10.774;2024-03-22T03:42:24;4.30;99.90
39503;DHT22;26970;49.900;10.774;2024-03-22T03:44:49;4.40;99.90
39503;DHT22;26970;49.900;10.774;2024-03-22T03:47:15;4.40;99.90
39503;DHT22;26970;49.900;10.774;2024-03-22T03:49:40;4.40;99.90
39503;DHT22;26970;49.900;10.774;2024-03-22T03:52:06;4.30;99.90
39503;DHT22;26970;49.900;10.774;2024-03-22T03:54:32;4.30;99.90
39503;DHT22;26970;49.900;10.774;2024-03-22T03:56:57;4.40;99.90
39503;DHT22;26970;49.900;10.774;2024-03-22T03:59:23;4.30;99.90
39503;DHT22;26970;49.900;10.774;2024-03-22T04:01:48;4.30;99.90
39503;DHT22;26970;49.900;10.774;2024-03-22T04:04:14;4.20;99.90
39503;DHT22;26970;49.900;10.774;2024-03-22T04:06:40;4.10;99.90
39503;DHT22;26970;49.900;10.774;2024-03-22T04:09:05;4.00;99.90
39503;DHT22;26970;49.900;10.774;2024-03-22T04:11:31;3.90;99.90
39503;DHT22;26970;49.900;10.774;2024-03-22T04:13:57;3.90;99.90
39503;DHT22;26970;49.900;10.774;2024-03-22T04:16:22;3.90;99.90
39503;DHT22;26970;49.900;10.774;2024-03-22T04:18:48;3.80;99.90
39503;DHT22;26970;49.900;10.774;2024-03-22T04:21:13;3.70;99.90
39503;DHT22;26970;49.900;10.774;2024-03-22T04:23:39;3.60;99.90
39503;DHT22;26970;49.900;10.774;2024-03-22T04:26:04;3.60;99.90
39503;DHT22;26970;49.900;10.774;2024-03-22T04:28:30;3.70;99.90
39503;DHT22;26970;49.900;10.774;2024-03-22T04:31:04;3.80;99.90
39503;DHT22;26970;49.900;10.774;2024-03-22T04:33:30;3.80;99.90
39503;DHT22;26970;49.900;10.774;2024-03-22T04:35:57;3.80;99.90
39503;DHT22;26970;49.900;10.774;2024-03-22T04:38:23;3.70;99.90
39503;DHT22;26970;49.900;10.774;2024-03-22T04:40:49;3.60;99.90
39503;DHT22;26970;49.900;10.774;2024-03-22T04:43:15;3.50;99.90
39503;DHT22;26970;49.900;10.774;2024-03-22T04:45:48;3.50;99.90
39503;DHT22;26970;49.900;10.774;2024-03-22T04:48:16;3.40;99.90
39503;DHT22;26970;49.900;10.774;2024-03-22T04:50:42;3.40;99.90
39503;DHT22;26970;49.900;10.774;2024-03-22T04:53:08;3.30;99.90
39503;DHT22;26970;49.900;10.774;2024-03-22T04:55:33;3.20;99.90
39503;DHT22;26970;49.900;10.774;2024-03-22T04:57:59;3.20;99.90
39503;DHT22;26970;49.900;10.774;2024-03-22T05:00:24;3.20;99.90
39503;DHT22;26970;49.900;10.774;2024-03-22T05:02:51;3.20;99.90
39503;DHT22;26970;49.900;10.774;2024-03-22T05:05:17;3.20;99.90
39503;DHT22;26970;49.900;10.774;2024-03-22T05:07:42;3.20;99.90
39503;DHT22;26970;49.900;10.774;2024-03-22T05:10:08;3.30;99.90
39503;DHT22;26970;49.900;10.774;2024-03-22T05:12:35;3.30;99.90
39503;DHT22;26970;49.900;10.774;2024-03-22T05:15:01;3.40;99.90
39503;DHT22;26970;49.900;10.774;2024-03-22T05:17:26;3.40;99.90
39503;DHT22;26970;49.900;10.774;2024-03-22T05:19:52;3.40;99.90
39503;DHT22;26970;49.900;10.774;2024-03-22T05:22:18;3.50;99.90
39503;DHT22;26970;49.900;10.774;2024-03-22T05:24:46;3.50;99.90
39503;DHT22;26970;49.900;10.774;2024-03-22T05:27:11;3.50;99.90
39503;DHT22;26970;49.900;10.774;2024-03-22T05:29:38;3.40;99.90
39503;DHT22;26970;49.900;10.774;2024-03-22T05:32:04;3.40;99.90
39503;DHT22;26970;49.900;10.774;2024-03-22T05:34:30;3.50;99.90
39503;DHT22;26970;49.900;10.774;2024-03-22T05:36:58;3.50;99.90
39503;DHT22;26970;49.900;10.774;2024-03-22T05:39:24;3.50;99.90
39503;DHT22;26970;49.900;10.774;2024-03-22T05:41:50;3.60;99.90
39503;DHT22;26970;49.900;10.774;2024-03-22T05:44:15;3.50;99.90
39503;DHT22;26970;49.900;10.774;2024-03-22T05:46:41;3.50;99.90
39503;DHT22;26970;49.900;10.774;2024-03-22T05:49:07;3.50;99.90
39503;DHT22;26970;49.900;10.774;2024-03-22T05:51:33;3.50;99.90
39503;DHT22;26970;49.900;10.774;2024-03-22T05:53:59;3.50;99.90
39503;DHT22;26970;49.900;10.774;2024-03-22T05:56:24;3.50;99.90
39503;DHT22;26970;49.900;10.774;2024-03-22T05:58:50;3.70;99.90
39503;DHT22;26970;49.900;10.774;2024-03-22T06:01:16;3.70;99.90
39503;DHT22;26970;49.900;10.774;2024-03-22T06:03:42;3.70;99.90
39503;DHT22;26970;49.900;10.774;2024-03-22T06:06:08;3.80;99.90
39503;DHT22;26970;49.900;10.774;2024-03-22T06:08:33;3.80;99.90
39503;DHT22;26970;49.900;10.774;2024-03-22T06:11:00;4.00;99.90
39503;DHT22;26970;49.900;10.774;2024-03-22T06:13:26;4.10;99.90
39503;DHT22;26970;49.900;10.774;2024-03-22T06:15:51;4.30;99.90
39503;DHT22;26970;49.900;10.774;2024-03-22T06:18:17;4.40;99.90
39503;DHT22;26970;49.900;10.774;2024-03-22T06:20:43;4.50;99.90
39503;DHT22;26970;49.900;10.774;2024-03-22T06:23:09;4.50;99.90
39503;DHT22;26970;49.900;10.774;2024-03-22T06:25:34;4.50;99.90
39503;DHT22;26970;49.900;10.774;2024-03-22T06:28:00;4.50;99.90
39503;DHT22;26970;49.900;10.774;2024-03-22T06:30:25;4.50;99.90
39503;DHT22;26970;49.900;10.774;2024-03-22T06:32:51;4.50;99.90
39503;DHT22;26970;49.900;10.774;2024-03-22T06:35:16;4.50;99.90
39503;DHT22;26970;49.900;10.774;2024-03-22T06:37:42;4.50;99.90
39503;DHT22;26970;49.900;10.774;2024-03-22T06:40:07;4.50;99.90
39503;DHT22;26970;49.900;10.774;2024-03-22T06:42:33;4.50;99.90
39503;DHT22;26970;49.900;10.774;2024-03-22T06:44:59;4.40;99.90
39503;DHT22;26970;49.900;10.774;2024-03-22T06:47:24;4.40;99.90
39503;DHT22;26970;49.900;10.774;2024-03-22T06:49:50;4.50;99.90
39503;DHT22;26970;49.900;10.774;2024-03-22T06:52:15;4.40;99.90
39503;DHT22;26970;49.900;10.774;2024-03-22T06:54:41;4.50;99.90
39503;DHT22;26970;49.900;10.774;2024-03-22T06:57:07;4.60;99.90
39503;DHT22;26970;49.900;10.774;2024-03-22T06:59:32;4.60;99.90
39503;DHT22;26970;49.900;10.774;2024-03-22T07:01:58;4.70;99.90
39503;DHT22;26970;49.900;10.774;2024-03-22T07:04:24;4.80;99.90
39503;DHT22;26970;49.900;10.774;2024-03-22T07:06:49;4.90;99.90
39503;DHT22;26970;49.900;10.774;2024-03-22T07:09:15;5.00;99.90
39503;DHT22;26970;49.900;10.774;2024-03-22T07:11:41;5.10;99.90
39503;DHT22;26970;49.900;10.774;2024-03-22T07:14:06;5.10;99.90
39503;DHT22;26970;49.900;10.774;2024-03-22T07:16:32;5.30;99.90
39503;DHT22;26970;49.900;10.774;2024-03-22T07:18:57;5.40;99.90
39503;DHT22;26970;49.900;10.774;2024-03-22T07:21:23;5.50;99.90
39503;DHT22;26970;49.900;10.774;2024-03-22T07:23:48;5.60;99.90
39503;DHT22;26970;49.900;10.774;2024-03-22T07:26:14;5.60;99.90
39503;DHT22;26970;49.900;10.774;2024-03-22T07:28:39;5.80;99.90
39503;DHT22;26970;49.900;10.774;2024-03-22T07:31:05;5.90;99.90
39503;DHT22;26970;49.900;10.774;2024-03-22T07:33:31;6.00;99.90
39503;DHT22;26970;49.900;10.774;2024-03-22T07:36:01;6.20;99.90
39503;DHT22;26970;49.900;10.774;2024-03-22T07:38:26;6.30;99.90
39503;DHT22;26970;49.900;10.774;2024-03-22T07:40:52;6.60;99.90
39503;DHT22;26970;49.900;10.774;2024-03-22T07:43:18;6.50;99.90
39503;DHT22;26970;49.900;10.774;2024-03-22T07:45:43;6.70;99.90
39503;DHT22;26970;49.900;10.774;2024-03-22T07:48:09;6.70;99.90
39503;DHT22;26970;49.900;10.774;2024-03-22T07:50:35;6.90;99.90
39503;DHT22;26970;49.900;10.774;2024-03-22T07:53:01;7.00;99.90
39503;DHT22;26970;49.900;10.774;2024-03-22T07:55:26;7.20;99.90
39503;DHT22;26970;49.900;10.774;2024-03-22T07:57:52;7.20;99.90
39503;DHT22;26970;49.900;10.774;2024-03-22T08:00:18;7.30;99.90
39503;DHT22;26970;49.900;10.774;2024-03-22T08:02:43;7.50;99.90
39503;DHT22;26970;49.900;10.774;2024-03-22T08:05:09;7.70;99.90
39503;DHT22;26970;49.900;10.774;2024-03-22T08:07:34;7.90;99.90
39503;DHT22;26970;49.900;10.774;2024-03-22T08:10:00;8.10;99.90
39503;DHT22;26970;49.900;10.774;2024-03-22T08:12:27;8.30;99.90
39503;DHT22;26970;49.900;10.774;2024-03-22T08:14:53;8.60;99.90
39503;DHT22;26970;49.900;10.774;2024-03-22T08:17:19;8.80;99.90
39503;DHT22;26970;49.900;10.774;2024-03-22T08:19:44;8.90;99.90
39503;DHT22;26970;49.900;10.774;2024-03-22T08:22:10;9.20;99.90
39503;DHT22;26970;49.900;10.774;2024-03-22T08:24:36;9.40;99.90
39503;DHT22;26970;49.900;10.774;2024-03-22T08:27:03;9.60;99.90
39503;DHT22;26970;49.900;10.774;2024-03-22T08:29:29;9.80;99.90
39503;DHT22;26970;49.900;10.774;2024-03-22T08:31:54;10.10;99.90
39503;DHT22;26970;49.900;10.774;2024-03-22T08:34:21;10.40;99.90
39503;DHT22;26970;49.900;10.774;2024-03-22T08:36:47;10.70;99.90
39503;DHT22;26970;49.900;10.774;2024-03-22T08:39:12;10.80;99.90
39503;DHT22;26970;49.900;10.774;2024-03-22T08:41:38;11.10;99.90
39503;DHT22;26970;49.900;10.774;2024-03-22T08:44:04;11.40;99.90
39503;DHT22;26970;49.900;10.774;2024-03-22T08:46:29;11.60;99.90
39503;DHT22;26970;49.900;10.774;2024-03-22T08:48:56;11.60;99.90
39503;DHT22;26970;49.900;10.774;2024-03-22T08:51:22;11.60;99.90
39503;DHT22;26970;49.900;10.774;2024-03-22T08:53:48;11.80;99.90
39503;DHT22;26970;49.900;10.774;2024-03-22T08:56:14;11.80;99.90
39503;DHT22;26970;49.900;10.774;2024-03-22T08:58:40;11.70;99.90
39503;DHT22;26970;49.900;10.774;2024-03-22T09:01:06;11.70;99.90
39503;DHT22;26970;49.900;10.774;2024-03-22T09:03:31;11.70;99.90
39503;DHT22;26970;49.900;10.774;2024-03-22T09:05:57;11.80;99.90
39503;DHT22;26970;49.900;10.774;2024-03-22T09:08:23;11.80;99.90
39503;DHT22;26970;49.900;10.774;2024-03-22T09:10:48;11.90;99.90
39503;DHT22;26970;49.900;10.774;2024-03-22T09:13:14;12.00;99.90
39503;DHT22;26970;49.900;10.774;2024-03-22T09:15:39;12.10;99.90
39503;DHT22;26970;49.900;10.774;2024-03-22T09:18:05;12.30;99.90
39503;DHT22;26970;49.900;10.774;2024-03-22T09:20:31;12.40;99.90
39503;DHT22;26970;49.900;10.774;2024-03-22T09:22:57;12.50;99.90
39503;DHT22;26970;49.900;10.774;2024-03-22T09:25:25;12.60;99.90
39503;DHT22;26970;49.900;10.774;2024-03-22T09:27:51;12.60;99.90
39503;DHT22;26970;49.900;10.774;2024-03-22T09:30:16;12.70;99.90
39503;DHT22;26970;49.900;10.774;2024-03-22T09:32:42;12.80;99.90
39503;DHT22;26970;49.900;10.774;2024-03-22T09:35:11;12.80;99.90
39503;DHT22;26970;49.900;10.774;2024-03-22T09:37:40;12.70;99.90
39503;DHT22;26970;49.900;10.774;2024-03-22T09:40:06;12.70;99.90
39503;DHT22;26970;49.900;10.774;2024-03-22T09:42:33;12.60;99.90
39503;DHT22;26970;49.900;10.774;2024-03-22T09:45:04;12.60;99.90
39503;DHT22;26970;49.900;10.774;2024-03-22T09:47:33;12.50;99.90
39503;DHT22;26970;49.900;10.774;2024-03-22T09:49:59;12.60;99.90
39503;DHT22;26970;49.900;10.774;2024-03-22T09:52:25;12.70;99.90
39503;DHT22;26970;49.900;10.774;2024-03-22T09:54:52;12.80;99.90
39503;DHT22;26970;49.900;10.774;2024-03-22T09:57:18;12.70;99.90
39503;DHT22;26970;49.900;10.774;2024-03-22T09:59:44;12.70;99.90
39503;DHT22;26970;49.900;10.774;2024-03-22T10:02:11;12.80;99.90
39503;DHT22;26970;49.900;10.774;2024-03-22T10:04:40;13.10;99.90
39503;DHT22;26970;49.900;10.774;2024-03-22T10:07:06;13.40;99.90
39503;DHT22;26970;49.900;10.774;2024-03-22T10:09:33;13.70;99.90
39503;DHT22;26970;49.900;10.774;2024-03-22T10:11:59;14.10;99.90
39503;DHT22;26970;49.900;10.774;2024-03-22T10:14:25;14.30;99.90
39503;DHT22;26970;49.900;10.774;2024-03-22T10:16:54;14.30;99.90
39503;DHT22;26970;49.900;10.774;2024-03-22T10:19:20;14.30;99.90
39503;DHT22;26970;49.900;10.774;2024-03-22T10:21:47;14.30;99.90
39503;DHT22;26970;49.900;10.774;2024-03-22T10:24:13;14.40;99.90
39503;DHT22;26970;49.900;10.774;2024-03-22T10:26:39;14.70;99.90
39503;DHT22;26970;49.900;10.774;2024-03-22T10:29:08;14.80;99.90
39503;DHT22;26970;49.900;10.774;2024-03-22T10:31:35;14.80;99.90
39503;DHT22;26970;49.900;10.774;2024-03-22T10:34:02;14.80;99.90
39503;DHT22;26970;49.900;10.774;2024-03-22T10:36:29;14.90;99.90
39503;DHT22;26970;49.900;10.774;2024-03-22T10:38:57;15.00;99.90
39503;DHT22;26970;49.900;10.774;2024-03-22T10:41:24;15.00;99.90
39503;DHT22;26970;49.900;10.774;2024-03-22T10:43:49;15.00;99.90
39503;DHT22;26970;49.900;10.774;2024-03-22T10:46:16;15.10;99.90
39503;DHT22;26970;49.900;10.774;2024-03-22T10:48:45;15.30;99.90
39503;DHT22;26970;49.900;10.774;2024-03-22T10:51:11;15.60;99.90
39503;DHT22;26970;49.900;10.774;2024-03-22T10:53:38;15.80;99.90
39503;DHT22;26970;49.900;10.774;2024-03-22T10:56:04;15.80;99.90
39503;DHT22;26970;49.900;10.774;2024-03-22T10:58:31;15.80;99.90
39503;DHT22;26970;49.900;10.774;2024-03-22T11:00:57;15.80;99.90
39503;DHT22;26970;49.900;10.774;2024-03-22T11:03:25;16.00;99.90
39503;DHT22;26970;49.900;10.774;2024-03-22T11:05:56;16.00;99.90
39503;DHT22;26970;49.900;10.774;2024-03-22T11:08:29;16.10;99.90
39503;DHT22;26970;49.900;10.774;2024-03-22T11:10:56;16.10;99.90
39503;DHT22;26970;49.900;10.774;2024-03-22T11:13:22;16.30;99.90
39503;DHT22;26970;49.900;10.774;2024-03-22T11:15:49;16.40;99.90
39503;DHT22;26970;49.900;10.774;2024-03-22T11:18:14;16.70;99.90
39503;DHT22;26970;49.900;10.774;2024-03-22T11:20:41;17.10;99.90
39503;DHT22;26970;49.900;10.774;2024-03-22T11:23:07;17.40;99.90
39503;DHT22;26970;49.900;10.774;2024-03-22T11:25:34;17.70;99.90
39503;DHT22;26970;49.900;10.774;2024-03-22T11:28:00;17.50;99.90
39503;DHT22;26970;49.900;10.774;2024-03-22T11:30:28;17.60;99.90
39503;DHT22;26970;49.900;10.774;2024-03-22T11:32:54;17.70;99.90
39503;DHT22;26970;49.900;10.774;2024-03-22T11:35:20;17.60;99.90
39503;DHT22;26970;49.900;10.774;2024-03-22T11:37:45;17.40;99.90
39503;DHT22;26970;49.900;10.774;2024-03-22T11:40:12;17.10;99.90
39503;DHT22;26970;49.900;10.774;2024-03-22T11:42:39;16.90;99.90
39503;DHT22;26970;49.900;10.774;2024-03-22T11:45:08;16.60;99.90
39503;DHT22;26970;49.900;10.774;2024-03-22T11:47:34;16.50;99.90
39503;DHT22;26970;49.900;10.774;2024-03-22T11:50:00;16.30;99.90
39503;DHT22;26970;49.900;10.774;2024-03-22T11:52:26;16.40;99.90
39503;DHT22;26970;49.900;10.774;2024-03-22T11:54:52;16.50;99.90
39503;DHT22;26970;49.900;10.774;2024-03-22T11:57:18;16.50;99.90
39503;DHT22;26970;49.900;10.774;2024-03-22T11:59:44;16.40;99.90
39503;DHT22;26970;49.900;10.774;2024-03-22T12:02:10;16.50;99.90
39503;DHT22;26970;49.900;10.774;2024-03-22T12:04:35;16.40;99.90
39503;DHT22;26970;49.900;10.774;2024-03-22T12:07:01;16.30;99.90
39503;DHT22;26970;49.900;10.774;2024-03-22T12:09:26;16.40;99.90
39503;DHT22;26970;49.900;10.774;2024-03-22T12:11:55;16.40;99.90
39503;DHT22;26970;49.900;10.774;2024-03-22T12:14:21;16.40;99.90
39503;DHT22;26970;49.900;10.774;2024-03-22T12:16:46;16.40;99.90
39503;DHT22;26970;49.900;10.774;2024-03-22T12:19:11;16.50;99.90
39503;DHT22;26970;49.900;10.774;2024-03-22T12:21:37;16.60;99.90
39503;DHT22;26970;49.900;10.774;2024-03-22T12:24:03;16.60;99.90
39503;DHT22;26970;49.900;10.774;2024-03-22T12:26:28;16.60;99.90
39503;DHT22;26970;49.900;10.774;2024-03-22T12:28:57;16.60;99.90
39503;DHT22;26970;49.900;10.774;2024-03-22T12:31:22;16.50;99.90
39503;DHT22;26970;49.900;10.774;2024-03-22T12:33:48;16.60;99.90
39503;DHT22;26970;49.900;10.774;2024-03-22T12:36:13;16.60;99.90
39503;DHT22;26970;49.900;10.774;2024-03-22T12:38:39;16.30;99.90
39503;DHT22;26970;49.900;10.774;2024-03-22T12:41:05;16.30;99.90
39503;DHT22;26970;49.900;10.774;2024-03-22T12:43:31;16.40;99.90
39503;DHT22;26970;49.900;10.774;2024-03-22T12:45:56;16.40;99.90
39503;DHT22;26970;49.900;10.774;2024-03-22T12:48:22;16.50;99.90
39503;DHT22;26970;49.900;10.774;2024-03-22T12:50:47;16.50;99.90
39503;DHT22;26970;49.900;10.774;2024-03-22T12:53:13;16.50;99.90
39503;DHT22;26970;49.900;10.774;2024-03-22T12:55:39;16.50;99.90
39503;DHT22;26970;49.900;10.774;2024-03-22T12:58:04;16.40;99.90
39503;DHT22;26970;49.900;10.774;2024-03-22T13:00:30;16.40;99.90
39503;DHT22;26970;49.900;10.774;2024-03-22T13:02:56;16.50;99.90
39503;DHT22;26970;49.900;10.774;2024-03-22T13:05:21;16.50;99.90
39503;DHT22;26970;49.900;10.774;2024-03-22T13:07:48;16.50;99.90
39503;DHT22;26970;49.900;10.774;2024-03-22T13:10:13;16.60;99.90
39503;DHT22;26970;49.900;10.774;2024-03-22T13:12:39;16.70;99.90
39503;DHT22;26970;49.900;10.774;2024-03-22T13:15:04;16.80;99.90
39503;DHT22;26970;49.900;10.774;2024-03-22T13:17:30;16.90;99.90
39503;DHT22;26970;49.900;10.774;2024-03-22T13:19:56;17.00;99.90
39503;DHT22;26970;49.900;10.774;2024-03-22T13:22:21;17.00;99.90
39503;DHT22;26970;49.900;10.774;2024-03-22T13:24:47;17.00;99.90
39503;DHT22;26970;49.900;10.774;2024-03-22T13:27:14;17.00;99.90
39503;DHT22;26970;49.900;10.774;2024-03-22T13:29:40;17.00;99.90
39503;DHT22;26970;49.900;10.774;2024-03-22T13:32:06;16.90;99.90
39503;DHT22;26970;49.900;10.774;2024-03-22T13:34:37;16.90;99.90
39503;DHT22;26970;49.900;10.774;2024-03-22T13:37:03;16.90;99.90
39503;DHT22;26970;49.900;10.774;2024-03-22T13:39:28;16.90;99.90
39503;DHT22;26970;49.900;10.774;2024-03-22T13:41:57;16.90;99.90
39503;DHT22;26970;49.900;10.774;2024-03-22T13:44:22;16.80;99.90
39503;DHT22;26970;49.900;10.774;2024-03-22T13:46:51;16.90;99.90
39503;DHT22;26970;49.900;10.774;2024-03-22T13:49:18;16.80;99.90
39503;DHT22;26970;49.900;10.774;2024-03-22T13:51:46;16.90;99.90
39503;DHT22;26970;49.900;10.774;2024-03-22T13:54:12;16.80;99.90
39503;DHT22;26970;49.900;10.774;2024-03-22T13:56:37;16.70;99.90
39503;DHT22;26970;49.900;10.774;2024-03-22T13:59:04;16.60;99.90
39503;DHT22;26970;49.900;10.774;2024-03-22T14:01:37;16.30;99.90
39503;DHT22;26970;49.900;10.774;2024-03-22T14:04:06;16.20;99.90
39503;DHT22;26970;49.900;10.774;2024-03-22T14:06:32;16.20;99.90
39503;DHT22;26970;49.900;10.774;2024-03-22T14:08:58;16.20;99.90
39503;DHT22;26970;49.900;10.774;2024-03-22T14:11:29;16.10;99.90
39503;DHT22;26970;49.900;10.774;2024-03-22T14:13:56;16.00;99.90
39503;DHT22;26970;49.900;10.774;2024-03-22T14:16:22;16.10;99.90
39503;DHT22;26970;49.900;10.774;2024-03-22T14:18:48;16.00;99.90
39503;DHT22;26970;49.900;10.774;2024-03-22T14:21:14;15.90;99.90
39503;DHT22;26970;49.900;10.774;2024-03-22T14:26:13;15.70;99.90
39503;DHT22;26970;49.900;10.774;2024-03-22T14:28:39;15.60;99.90
39503;DHT22;26970;49.900;10.774;2024-03-22T14:31:09;15.60;99.90
39503;DHT22;26970;49.900;10.774;2024-03-22T14:33:35;15.60;99.90
39503;DHT22;26970;49.900;10.774;2024-03-22T14:36:02;15.60;99.90
39503;DHT22;26970;49.900;10.774;2024-03-22T14:38:27;15.50;99.90
39503;DHT22;26970;49.900;10.774;2024-03-22T14:40:54;15.50;99.90
39503;DHT22;26970;49.900;10.774;2024-03-22T14:43:21;15.50;99.90
39503;DHT22;26970;49.900;10.774;2024-03-22T14:45:46;15.40;99.90
39503;DHT22;26970;49.900;10.774;2024-03-22T14:48:12;15.30;99.90
39503;DHT22;26970;49.900;10.774;2024-03-22T14:50:37;15.30;99.90
39503;DHT22;26970;49.900;10.774;2024-03-22T14:53:08;15.30;99.90
39503;DHT22;26970;49.900;10.774;2024-03-22T14:55:33;15.30;99.90
39503;DHT22;26970;49.900;10.774;2024-03-22T14:58:02;15.30;99.90
39503;DHT22;26970;49.900;10.774;2024-03-22T15:00:27;15.30;99.90
39503;DHT22;26970;49.900;10.774;2024-03-22T15:02:54;15.30;99.90
39503;DHT22;26970;49.900;10.774;2024-03-22T15:05:19;15.20;99.90
39503;DHT22;26970;49.900;10.774;2024-03-22T15:07:45;15.30;99.90
39503;DHT22;26970;49.900;10.774;2024-03-22T15:10:10;15.30;99.90
39503;DHT22;26970;49.900;10.774;2024-03-22T15:12:36;15.20;99.90
39503;DHT22;26970;49.900;10.774;2024-03-22T15:15:02;15.20;99.90
39503;DHT22;26970;49.900;10.774;2024-03-22T15:17:28;15.10;99.90
39503;DHT22;26970;49.900;10.774;2024-03-22T15:19:54;15.10;99.90